CST,Max TemperatureF,Mean TemperatureF,Min TemperatureF,Max Dew PointF,MeanDew PointF,Min DewpointF,Max Humidity, Mean Humidity, Min Humidity, Max Sea Level PressureIn, Mean Sea Level PressureIn, Min Sea Level PressureIn, Max VisibilityMiles, Mean VisibilityMiles, Min VisibilityMiles, Max Wind SpeedMPH, Mean Wind SpeedMPH, Max Gust SpeedMPH,PrecipitationIn, CloudCover, Events, WindDirDegrees
2014-2-1,15,6,-4,8,2,-11,77,72,63,30.17,30.06,29.93,10,7,1,9,3,,0.01,6,Snow,351
2014-2-2,12,5,-2,0,-3,-9,80,68,49,30.38,30.30,30.17,10,9,6,10,6,,0.00,0,,261
2014-2-3,16,4,-9,2,-4,-15,79,65,47,30.43,30.38,30.35,10,10,10,14,7,,0.00,0,,215
2014-2-4,18,12,5,7,4,-2,80,67,60,30.50,30.39,30.24,10,9,5,20,6,,0.00,5,,6
2014-2-5,16,10,3,8,3,-4,71,66,59,30.47,30.38,30.28,10,10,10,21,14,28,0.00,7,,337
2014-2-6,7,1,-5,-6,-9,-12,76,65,51,30.45,30.38,30.32,10,10,10,14,7,20,0.00,1,,256
2014-2-7,12,5,-2,-5,-8,-11,72,59,44,30.32,30.29,30.25,10,10,10,13,8,24,0.00,0,,223
2014-2-8,12,3,-6,7,0,-11,85,75,64,30.32,30.22,30.10,10,6,1,8,5,,0.00,5,Snow,207
2014-2-9,17,9,0,5,0,-12,80,67,51,30.35,30.21,30.11,10,8,1,13,7,,0.00,4,Snow,289
2014-2-10,7,0,-8,-8,-12,-16,68,59,48,30.53,30.45,30.36,10,10,10,13,8,,0.00,0,,290
2014-2-11,10,0,-11,-5,-10,-17,75,61,46,30.58,30.49,30.36,10,10,2,14,7,,0.00,0,,219
2014-2-12,15,6,-4,9,2,-8,87,75,60,30.35,30.15,29.98,10,4,0,18,10,,0.07,5,Snow,204
2014-2-13,26,11,-4,21,14,-8,87,79,60,30.01,29.65,29.46,10,3,0,23,10,29,0.03,8,Fog-Rain-Snow,189
2014-2-14,21,14,7,11,5,-2,77,66,55,30.03,29.79,29.54,10,9,6,17,12,24,0.00,2,,296
2014-2-15,18,6,-5,12,4,-9,84,73,57,30.13,30.02,29.92,10,7,1,9,4,,0.05,5,Snow,197
2014-2-16,17,10,3,11,6,-1,84,74,62,30.35,30.20,29.93,10,8,3,14,6,,0.00,3,Snow,7
2014-2-17,26,16,7,20,17,2,89,83,69,30.31,29.86,29.69,10,3,0,21,8,31,0.27,8,Fog-Snow,156
2014-2-18,39,27,15,26,19,12,88,78,58,29.90,29.76,29.60,10,6,2,14,7,,0.00,3,,220
2014-2-19,42,34,26,26,22,19,75,64,49,29.94,29.84,29.67,10,10,9,15,10,,0.00,1,,235
2014-2-20,37,32,28,35,30,21,93,84,64,29.90,29.45,28.99,10,6,2,26,11,34,0.36,8,Rain-Thunderstorm,122
2014-2-21,36,26,17,29,15,8,78,68,55,29.72,29.38,29.00,10,9,2,25,19,41,0.00,6,Snow,238
2014-2-22,26,19,12,9,6,2,68,59,47,30.08,29.91,29.73,10,10,10,16,12,24,0.00,0,,260
2014-2-23,21,13,5,5,1,-3,70,59,44,30.19,30.15,30.09,10,10,10,18,10,28,0.00,0,,269
2014-2-24,19,12,6,3,0,-3,70,61,50,30.28,30.24,30.19,10,10,10,16,10,25,0.00,0,,287
2014-2-25,10,6,0,0,-4,-11,73,60,46,30.27,30.22,30.16,10,9,4,20,10,26,0.00,3,Snow,284
2014-2-26,10,2,-7,4,-7,-16,76,60,40,30.27,29.87,29.54,10,9,2,24,11,37,0.00,2,Snow,247
2014-2-27,8,0,-9,-3,-14,-20,67,51,36,30.28,30.04,29.60,10,9,2,22,14,36,0.00,1,Snow,302
2014-2-28,17,4,-9,12,0,-20,84,67,50,30.27,30.11,29.98,10,6,1,21,5,25,0.05,6,Snow,184